Terminal Aerodrome Forecast
Issued by NWS

Home | Current Version | Previous Version | Graphics & Text | Print | Product List | Glossary On
Versions: 1 2 3 4 5 6 7 8 9 10 11 12 13 14 15 16 17 18 19 20
000
FTUS43 KGRB 232337
TAFRHI
TAF
KRHI 232337Z 2400/2424 16009G14KT P6SM -SHRA OVC028 WS018/19040KT
     FM240400 19005KT 4SM -FZRA BR OVC013 WS018/23040KT
     FM240700 VRB03KT 2SM -FZRA BR OVC007
     FM241300 33004KT 2SM -RA BR OVC004
      TEMPO 2415/2417 4SM -SHRA BR OVC007
     FM241700 01006KT P6SM -SHRA OVC007
     FM242000 04007KT P6SM OVC015=

USA.gov is the U.S. government's official web portal to all federal, state and local government web resources and services.